Terminal Aerodrome Forecast
Issued by NWS Dodge City, KS

Home | Current Version | Previous Version | Text Only | Print | Product List | Glossary Off
Versions: 1 2 3 4 5 6 7 8 9 10 11 12 13 14 15 16 17 18 19 20 21 22 23 24 25 26 27 28 29 30

000
FTUS43 KDDC 191255 AAC
TAFDDC
TAF AMD
KDDC 191255Z 1913/2012 17010KT 1/4SM FG VV002
     FM191600 18011KT 6SM BR BKN070
     FM192100 16016G26KT P6SM BKN200
     FM200600 18012G23KT P6SM BKN060
     FM201000 20013KT P6SM BKN130=

USA.gov is the U.S. government's official web portal to all federal, state and local government web resources and services.